sensor_id;sensor_type;location;lat;lon;timestamp;P1;durP1;ratioP1;P2;durP2;ratioP2
78752;SDS011;68072;51.688;7.842;2023-04-25T00:01:05;13.20;;;5.05;;
78752;SDS011;68072;51.688;7.842;2023-04-25T00:03:31;3.63;;;2.50;;
78752;SDS011;68072;51.688;7.842;2023-04-25T00:05:57;13.63;;;4.75;;
78752;SDS011;68072;51.688;7.842;2023-04-25T00:08:26;13.25;;;4.95;;
78752;SDS011;68072;51.688;7.842;2023-04-25T00:10:52;13.63;;;5.15;;
78752;SDS011;68072;51.688;7.842;2023-04-25T00:13:17;14.95;;;5.07;;
78752;SDS011;68072;51.688;7.842;2023-04-25T00:15:44;11.57;;;4.05;;
78752;SDS011;68072;51.688;7.842;2023-04-25T00:18:11;10.30;;;4.32;;
78752;SDS011;68072;51.688;7.842;2023-04-25T00:20:36;17.80;;;5.45;;
78752;SDS011;68072;51.688;7.842;2023-04-25T00:23:02;10.52;;;4.60;;
78752;SDS011;68072;51.688;7.842;2023-04-25T00:25:27;13.15;;;4.95;;
78752;SDS011;68072;51.688;7.842;2023-04-25T00:27:53;6.93;;;4.15;;
78752;SDS011;68072;51.688;7.842;2023-04-25T00:30:19;12.27;;;4.72;;
78752;SDS011;68072;51.688;7.842;2023-04-25T00:32:44;8.52;;;4.30;;
78752;SDS011;68072;51.688;7.842;2023-04-25T00:35:10;7.05;;;4.30;;
78752;SDS011;68072;51.688;7.842;2023-04-25T00:37:36;13.95;;;5.00;;
78752;SDS011;68072;51.688;7.842;2023-04-25T00:40:02;17.33;;;5.18;;
78752;SDS011;68072;51.688;7.842;2023-04-25T00:42:31;10.15;;;4.93;;
78752;SDS011;68072;51.688;7.842;2023-04-25T00:44:57;12.68;;;4.72;;
78752;SDS011;68072;51.688;7.842;2023-04-25T00:49:49;8.33;;;4.57;;
78752;SDS011;68072;51.688;7.842;2023-04-25T00:52:14;7.95;;;3.83;;
78752;SDS011;68072;51.688;7.842;2023-04-25T00:54:39;14.25;;;5.50;;
78752;SDS011;68072;51.688;7.842;2023-04-25T00:57:05;10.93;;;5.20;;
78752;SDS011;68072;51.688;7.842;2023-04-25T00:59:30;7.00;;;4.40;;
78752;SDS011;68072;51.688;7.842;2023-04-25T01:01:56;11.80;;;5.43;;
78752;SDS011;68072;51.688;7.842;2023-04-25T01:04:22;12.55;;;5.57;;
78752;SDS011;68072;51.688;7.842;2023-04-25T01:06:47;8.98;;;4.90;;
78752;SDS011;68072;51.688;7.842;2023-04-25T01:09:13;14.00;;;5.22;;
78752;SDS011;68072;51.688;7.842;2023-04-25T01:11:39;15.13;;;5.80;;
78752;SDS011;68072;51.688;7.842;2023-04-25T01:14:05;9.07;;;4.68;;
78752;SDS011;68072;51.688;7.842;2023-04-25T01:16:31;9.95;;;4.30;;
78752;SDS011;68072;51.688;7.842;2023-04-25T01:18:58;13.73;;;5.95;;
78752;SDS011;68072;51.688;7.842;2023-04-25T01:21:23;12.77;;;5.15;;
78752;SDS011;68072;51.688;7.842;2023-04-25T01:23:51;14.40;;;5.28;;
78752;SDS011;68072;51.688;7.842;2023-04-25T01:26:20;6.32;;;3.67;;
78752;SDS011;68072;51.688;7.842;2023-04-25T01:28:46;10.93;;;5.15;;
78752;SDS011;68072;51.688;7.842;2023-04-25T01:31:12;10.45;;;5.07;;
78752;SDS011;68072;51.688;7.842;2023-04-25T01:33:38;10.07;;;4.88;;
78752;SDS011;68072;51.688;7.842;2023-04-25T01:36:03;10.68;;;5.05;;
78752;SDS011;68072;51.688;7.842;2023-04-25T01:38:29;13.32;;;5.38;;
78752;SDS011;68072;51.688;7.842;2023-04-25T01:40:55;10.30;;;6.05;;
78752;SDS011;68072;51.688;7.842;2023-04-25T01:43:21;12.52;;;5.55;;
78752;SDS011;68072;51.688;7.842;2023-04-25T01:45:46;14.90;;;5.30;;
78752;SDS011;68072;51.688;7.842;2023-04-25T01:48:12;13.73;;;5.63;;
78752;SDS011;68072;51.688;7.842;2023-04-25T01:50:39;12.40;;;6.25;;
78752;SDS011;68072;51.688;7.842;2023-04-25T01:53:05;7.53;;;4.50;;
78752;SDS011;68072;51.688;7.842;2023-04-25T01:55:31;10.00;;;4.97;;
78752;SDS011;68072;51.688;7.842;2023-04-25T01:57:56;15.50;;;7.00;;
78752;SDS011;68072;51.688;7.842;2023-04-25T02:00:22;18.05;;;8.25;;
78752;SDS011;68072;51.688;7.842;2023-04-25T02:02:47;13.20;;;7.22;;
78752;SDS011;68072;51.688;7.842;2023-04-25T02:05:13;18.38;;;8.02;;
78752;SDS011;68072;51.688;7.842;2023-04-25T02:07:38;17.70;;;7.45;;
78752;SDS011;68072;51.688;7.842;2023-04-25T02:10:04;15.45;;;7.25;;
78752;SDS011;68072;51.688;7.842;2023-04-25T02:12:30;23.27;;;7.55;;
78752;SDS011;68072;51.688;7.842;2023-04-25T02:14:56;15.23;;;5.70;;
78752;SDS011;68072;51.688;7.842;2023-04-25T02:17:22;13.02;;;5.85;;
78752;SDS011;68072;51.688;7.842;2023-04-25T02:19:47;14.45;;;5.20;;
78752;SDS011;68072;51.688;7.842;2023-04-25T02:22:13;10.95;;;5.43;;
78752;SDS011;68072;51.688;7.842;2023-04-25T02:24:38;12.43;;;5.80;;
78752;SDS011;68072;51.688;7.842;2023-04-25T02:27:04;13.18;;;5.43;;
78752;SDS011;68072;51.688;7.842;2023-04-25T02:29:29;9.65;;;4.97;;
78752;SDS011;68072;51.688;7.842;2023-04-25T02:31:55;17.20;;;5.25;;
78752;SDS011;68072;51.688;7.842;2023-04-25T02:34:20;13.13;;;6.10;;
78752;SDS011;68072;51.688;7.842;2023-04-25T02:36:48;17.90;;;5.22;;
78752;SDS011;68072;51.688;7.842;2023-04-25T02:39:14;13.15;;;5.07;;
78752;SDS011;68072;51.688;7.842;2023-04-25T02:41:40;9.45;;;5.00;;
78752;SDS011;68072;51.688;7.842;2023-04-25T02:44:05;11.40;;;5.07;;
78752;SDS011;68072;51.688;7.842;2023-04-25T02:46:30;14.98;;;6.03;;
78752;SDS011;68072;51.688;7.842;2023-04-25T02:48:56;13.18;;;5.22;;
78752;SDS011;68072;51.688;7.842;2023-04-25T02:51:21;10.75;;;5.20;;
78752;SDS011;68072;51.688;7.842;2023-04-25T02:53:46;16.33;;;5.15;;
78752;SDS011;68072;51.688;7.842;2023-04-25T02:56:12;12.18;;;5.50;;
78752;SDS011;68072;51.688;7.842;2023-04-25T02:58:37;9.80;;;5.38;;
78752;SDS011;68072;51.688;7.842;2023-04-25T03:01:03;12.65;;;5.00;;
78752;SDS011;68072;51.688;7.842;2023-04-25T03:03:28;14.85;;;4.72;;
78752;SDS011;68072;51.688;7.842;2023-04-25T03:05:53;7.82;;;4.40;;
78752;SDS011;68072;51.688;7.842;2023-04-25T03:08:19;11.90;;;5.03;;
78752;SDS011;68072;51.688;7.842;2023-04-25T03:10:45;9.93;;;5.50;;
78752;SDS011;68072;51.688;7.842;2023-04-25T03:13:10;11.43;;;4.68;;
78752;SDS011;68072;51.688;7.842;2023-04-25T03:15:36;11.82;;;5.03;;
78752;SDS011;68072;51.688;7.842;2023-04-25T03:18:02;13.15;;;5.50;;
78752;SDS011;68072;51.688;7.842;2023-04-25T03:20:27;13.55;;;4.88;;
78752;SDS011;68072;51.688;7.842;2023-04-25T03:22:53;14.20;;;4.80;;
78752;SDS011;68072;51.688;7.842;2023-04-25T03:25:19;10.00;;;4.85;;
78752;SDS011;68072;51.688;7.842;2023-04-25T03:27:44;13.38;;;5.05;;
78752;SDS011;68072;51.688;7.842;2023-04-25T03:30:10;13.85;;;5.10;;
78752;SDS011;68072;51.688;7.842;2023-04-25T03:32:36;3.90;;;3.03;;
78752;SDS011;68072;51.688;7.842;2023-04-25T03:35:01;15.35;;;4.78;;
78752;SDS011;68072;51.688;7.842;2023-04-25T03:37:27;21.13;;;5.85;;
78752;SDS011;68072;51.688;7.842;2023-04-25T03:39:52;9.75;;;4.28;;
78752;SDS011;68072;51.688;7.842;2023-04-25T03:42:17;11.52;;;4.65;;
78752;SDS011;68072;51.688;7.842;2023-04-25T03:44:43;11.43;;;4.45;;
78752;SDS011;68072;51.688;7.842;2023-04-25T03:47:08;15.73;;;4.97;;
78752;SDS011;68072;51.688;7.842;2023-04-25T03:49:34;5.50;;;2.30;;
78752;SDS011;68072;51.688;7.842;2023-04-25T03:52:00;13.95;;;4.70;;
78752;SDS011;68072;51.688;7.842;2023-04-25T03:54:26;17.00;;;5.20;;
78752;SDS011;68072;51.688;7.842;2023-04-25T03:56:51;11.18;;;4.03;;
78752;SDS011;68072;51.688;7.842;2023-04-25T03:59:17;10.25;;;3.30;;
78752;SDS011;68072;51.688;7.842;2023-04-25T04:01:42;11.50;;;4.38;;
78752;SDS011;68072;51.688;7.842;2023-04-25T04:04:07;23.92;;;4.80;;
78752;SDS011;68072;51.688;7.842;2023-04-25T04:06:33;20.10;;;4.43;;
78752;SDS011;68072;51.688;7.842;2023-04-25T04:08:58;8.60;;;4.30;;
78752;SDS011;68072;51.688;7.842;2023-04-25T04:11:24;12.05;;;4.28;;
78752;SDS011;68072;51.688;7.842;2023-04-25T04:13:49;13.27;;;4.45;;
78752;SDS011;68072;51.688;7.842;2023-04-25T04:16:15;18.98;;;4.70;;
78752;SDS011;68072;51.688;7.842;2023-04-25T04:18:40;20.90;;;4.20;;
78752;SDS011;68072;51.688;7.842;2023-04-25T04:21:06;16.73;;;4.68;;
78752;SDS011;68072;51.688;7.842;2023-04-25T04:23:31;10.35;;;4.45;;
78752;SDS011;68072;51.688;7.842;2023-04-25T04:25:56;12.88;;;3.88;;
78752;SDS011;68072;51.688;7.842;2023-04-25T04:28:22;15.65;;;4.85;;
78752;SDS011;68072;51.688;7.842;2023-04-25T04:30:48;11.48;;;4.15;;
78752;SDS011;68072;51.688;7.842;2023-04-25T04:33:16;14.10;;;4.30;;
78752;SDS011;68072;51.688;7.842;2023-04-25T04:35:43;13.93;;;4.95;;
78752;SDS011;68072;51.688;7.842;2023-04-25T04:38:09;24.85;;;4.63;;
78752;SDS011;68072;51.688;7.842;2023-04-25T04:40:35;11.63;;;3.97;;
78752;SDS011;68072;51.688;7.842;2023-04-25T04:43:01;9.75;;;3.75;;
78752;SDS011;68072;51.688;7.842;2023-04-25T04:45:27;16.20;;;4.85;;
78752;SDS011;68072;51.688;7.842;2023-04-25T04:47:52;12.40;;;4.28;;
78752;SDS011;68072;51.688;7.842;2023-04-25T04:50:20;13.32;;;3.95;;
78752;SDS011;68072;51.688;7.842;2023-04-25T04:52:45;5.95;;;2.75;;
78752;SDS011;68072;51.688;7.842;2023-04-25T04:55:11;18.25;;;4.20;;
78752;SDS011;68072;51.688;7.842;2023-04-25T04:57:36;14.95;;;4.47;;
78752;SDS011;68072;51.688;7.842;2023-04-25T05:02:36;16.65;;;3.80;;
78752;SDS011;68072;51.688;7.842;2023-04-25T05:05:02;18.13;;;4.80;;
78752;SDS011;68072;51.688;7.842;2023-04-25T05:07:28;18.98;;;4.78;;
78752;SDS011;68072;51.688;7.842;2023-04-25T05:09:53;15.93;;;3.97;;
78752;SDS011;68072;51.688;7.842;2023-04-25T05:12:18;10.95;;;3.90;;
78752;SDS011;68072;51.688;7.842;2023-04-25T05:14:44;19.83;;;4.63;;
78752;SDS011;68072;51.688;7.842;2023-04-25T05:17:09;16.48;;;4.03;;
78752;SDS011;68072;51.688;7.842;2023-04-25T05:19:35;18.52;;;4.57;;
78752;SDS011;68072;51.688;7.842;2023-04-25T05:22:00;20.70;;;4.60;;
78752;SDS011;68072;51.688;7.842;2023-04-25T05:24:26;17.65;;;4.38;;
78752;SDS011;68072;51.688;7.842;2023-04-25T05:26:53;18.67;;;4.32;;
78752;SDS011;68072;51.688;7.842;2023-04-25T05:29:18;20.90;;;4.78;;
78752;SDS011;68072;51.688;7.842;2023-04-25T05:31:44;14.07;;;3.75;;
78752;SDS011;68072;51.688;7.842;2023-04-25T05:34:09;15.10;;;3.42;;
78752;SDS011;68072;51.688;7.842;2023-04-25T05:36:35;12.02;;;4.13;;
78752;SDS011;68072;51.688;7.842;2023-04-25T05:39:00;13.50;;;3.95;;
78752;SDS011;68072;51.688;7.842;2023-04-25T05:41:26;17.65;;;3.83;;
78752;SDS011;68072;51.688;7.842;2023-04-25T05:43:51;23.10;;;4.72;;
78752;SDS011;68072;51.688;7.842;2023-04-25T05:46:16;13.48;;;4.38;;
78752;SDS011;68072;51.688;7.842;2023-04-25T05:48:42;10.90;;;3.42;;
78752;SDS011;68072;51.688;7.842;2023-04-25T05:51:08;11.50;;;4.10;;
78752;SDS011;68072;51.688;7.842;2023-04-25T05:53:33;16.98;;;4.15;;
78752;SDS011;68072;51.688;7.842;2023-04-25T05:55:59;17.73;;;3.78;;
78752;SDS011;68072;51.688;7.842;2023-04-25T05:58:24;15.75;;;3.75;;
78752;SDS011;68072;51.688;7.842;2023-04-25T06:00:50;22.63;;;5.10;;
78752;SDS011;68072;51.688;7.842;2023-04-25T06:03:15;13.90;;;3.85;;
78752;SDS011;68072;51.688;7.842;2023-04-25T06:05:41;14.65;;;3.65;;
78752;SDS011;68072;51.688;7.842;2023-04-25T06:08:07;6.90;;;3.08;;
78752;SDS011;68072;51.688;7.842;2023-04-25T06:10:32;20.15;;;4.00;;
78752;SDS011;68072;51.688;7.842;2023-04-25T06:12:58;16.42;;;3.63;;
78752;SDS011;68072;51.688;7.842;2023-04-25T06:15:23;10.52;;;3.25;;
78752;SDS011;68072;51.688;7.842;2023-04-25T06:17:49;15.60;;;3.70;;
78752;SDS011;68072;51.688;7.842;2023-04-25T06:20:14;10.32;;;3.85;;
78752;SDS011;68072;51.688;7.842;2023-04-25T06:22:39;14.73;;;3.58;;
78752;SDS011;68072;51.688;7.842;2023-04-25T06:25:05;14.75;;;3.78;;
78752;SDS011;68072;51.688;7.842;2023-04-25T06:27:32;15.73;;;2.85;;
78752;SDS011;68072;51.688;7.842;2023-04-25T06:29:58;13.93;;;3.50;;
78752;SDS011;68072;51.688;7.842;2023-04-25T06:32:23;10.90;;;3.30;;
78752;SDS011;68072;51.688;7.842;2023-04-25T06:34:49;11.38;;;3.40;;
78752;SDS011;68072;51.688;7.842;2023-04-25T06:37:15;14.23;;;3.53;;
78752;SDS011;68072;51.688;7.842;2023-04-25T06:39:41;8.98;;;3.20;;
78752;SDS011;68072;51.688;7.842;2023-04-25T06:42:06;16.88;;;3.03;;
78752;SDS011;68072;51.688;7.842;2023-04-25T06:44:31;13.82;;;3.70;;
78752;SDS011;68072;51.688;7.842;2023-04-25T06:46:57;8.07;;;2.53;;
78752;SDS011;68072;51.688;7.842;2023-04-25T06:49:22;13.32;;;3.22;;
78752;SDS011;68072;51.688;7.842;2023-04-25T06:51:48;13.75;;;2.97;;
78752;SDS011;68072;51.688;7.842;2023-04-25T06:54:13;9.20;;;3.08;;
78752;SDS011;68072;51.688;7.842;2023-04-25T06:56:38;13.02;;;3.13;;
78752;SDS011;68072;51.688;7.842;2023-04-25T06:59:04;6.82;;;2.13;;
78752;SDS011;68072;51.688;7.842;2023-04-25T07:01:29;14.32;;;3.20;;
78752;SDS011;68072;51.688;7.842;2023-04-25T07:03:55;8.68;;;2.95;;
78752;SDS011;68072;51.688;7.842;2023-04-25T07:06:20;4.93;;;2.22;;
78752;SDS011;68072;51.688;7.842;2023-04-25T07:08:46;9.27;;;2.70;;
78752;SDS011;68072;51.688;7.842;2023-04-25T07:11:11;9.00;;;2.65;;
78752;SDS011;68072;51.688;7.842;2023-04-25T07:13:36;14.25;;;3.17;;
78752;SDS011;68072;51.688;7.842;2023-04-25T07:16:02;6.70;;;3.33;;
78752;SDS011;68072;51.688;7.842;2023-04-25T07:18:28;18.13;;;3.20;;
78752;SDS011;68072;51.688;7.842;2023-04-25T07:20:53;11.52;;;2.90;;
78752;SDS011;68072;51.688;7.842;2023-04-25T07:23:19;11.18;;;2.70;;
78752;SDS011;68072;51.688;7.842;2023-04-25T07:25:44;8.80;;;2.55;;
78752;SDS011;68072;51.688;7.842;2023-04-25T07:28:09;10.73;;;1.80;;
78752;SDS011;68072;51.688;7.842;2023-04-25T07:30:35;6.85;;;2.85;;
78752;SDS011;68072;51.688;7.842;2023-04-25T07:33:00;10.13;;;2.78;;
78752;SDS011;68072;51.688;7.842;2023-04-25T07:35:26;10.30;;;3.00;;
78752;SDS011;68072;51.688;7.842;2023-04-25T07:37:51;19.50;;;3.35;;
78752;SDS011;68072;51.688;7.842;2023-04-25T07:40:16;7.38;;;2.20;;
78752;SDS011;68072;51.688;7.842;2023-04-25T07:42:42;15.57;;;2.78;;
78752;SDS011;68072;51.688;7.842;2023-04-25T07:45:07;5.70;;;2.30;;
78752;SDS011;68072;51.688;7.842;2023-04-25T07:47:34;10.00;;;3.00;;
78752;SDS011;68072;51.688;7.842;2023-04-25T07:50:00;8.82;;;2.35;;
78752;SDS011;68072;51.688;7.842;2023-04-25T07:52:25;9.20;;;2.53;;
78752;SDS011;68072;51.688;7.842;2023-04-25T07:54:50;7.68;;;2.25;;
78752;SDS011;68072;51.688;7.842;2023-04-25T07:57:16;8.13;;;2.15;;
78752;SDS011;68072;51.688;7.842;2023-04-25T07:59:43;8.60;;;2.42;;
78752;SDS011;68072;51.688;7.842;2023-04-25T08:02:08;9.80;;;2.50;;
78752;SDS011;68072;51.688;7.842;2023-04-25T08:04:34;11.45;;;2.22;;
78752;SDS011;68072;51.688;7.842;2023-04-25T08:06:59;7.88;;;2.00;;
78752;SDS011;68072;51.688;7.842;2023-04-25T08:09:25;15.00;;;2.20;;
78752;SDS011;68072;51.688;7.842;2023-04-25T08:11:50;5.90;;;2.03;;
78752;SDS011;68072;51.688;7.842;2023-04-25T08:14:16;5.00;;;1.67;;
78752;SDS011;68072;51.688;7.842;2023-04-25T08:16:41;5.85;;;1.92;;
78752;SDS011;68072;51.688;7.842;2023-04-25T08:19:07;15.73;;;2.42;;
78752;SDS011;68072;51.688;7.842;2023-04-25T08:21:32;11.88;;;2.17;;
78752;SDS011;68072;51.688;7.842;2023-04-25T08:23:58;9.00;;;2.05;;
78752;SDS011;68072;51.688;7.842;2023-04-25T08:26:24;8.85;;;2.30;;
78752;SDS011;68072;51.688;7.842;2023-04-25T08:28:50;12.23;;;2.55;;
78752;SDS011;68072;51.688;7.842;2023-04-25T08:31:15;5.38;;;2.00;;
78752;SDS011;68072;51.688;7.842;2023-04-25T08:33:41;5.88;;;2.20;;
78752;SDS011;68072;51.688;7.842;2023-04-25T08:36:07;7.85;;;2.25;;
78752;SDS011;68072;51.688;7.842;2023-04-25T08:38:32;5.30;;;2.00;;
78752;SDS011;68072;51.688;7.842;2023-04-25T08:40:58;4.30;;;1.70;;
78752;SDS011;68072;51.688;7.842;2023-04-25T08:43:25;8.68;;;1.73;;
78752;SDS011;68072;51.688;7.842;2023-04-25T08:45:51;5.10;;;1.80;;
78752;SDS011;68072;51.688;7.842;2023-04-25T08:48:27;10.15;;;2.42;;
78752;SDS011;68072;51.688;7.842;2023-04-25T08:51:01;5.55;;;2.13;;
78752;SDS011;68072;51.688;7.842;2023-04-25T08:53:37;8.07;;;2.20;;
78752;SDS011;68072;51.688;7.842;2023-04-25T08:56:10;7.25;;;1.73;;
78752;SDS011;68072;51.688;7.842;2023-04-25T09:01:03;8.97;;;1.80;;
78752;SDS011;68072;51.688;7.842;2023-04-25T09:03:29;6.53;;;1.80;;
78752;SDS011;68072;51.688;7.842;2023-04-25T09:05:55;5.22;;;1.58;;
78752;SDS011;68072;51.688;7.842;2023-04-25T09:08:21;8.48;;;2.35;;
78752;SDS011;68072;51.688;7.842;2023-04-25T09:10:46;10.68;;;2.70;;
78752;SDS011;68072;51.688;7.842;2023-04-25T09:13:12;5.07;;;1.63;;
78752;SDS011;68072;51.688;7.842;2023-04-25T09:15:49;8.13;;;1.77;;
78752;SDS011;68072;51.688;7.842;2023-04-25T09:18:23;5.68;;;1.85;;
78752;SDS011;68072;51.688;7.842;2023-04-25T09:20:50;7.35;;;1.70;;
78752;SDS011;68072;51.688;7.842;2023-04-25T09:25:42;6.53;;;1.80;;
78752;SDS011;68072;51.688;7.842;2023-04-25T09:28:08;6.03;;;1.38;;
78752;SDS011;68072;51.688;7.842;2023-04-25T09:30:35;5.43;;;1.33;;
78752;SDS011;68072;51.688;7.842;2023-04-25T09:33:08;5.43;;;1.63;;
78752;SDS011;68072;51.688;7.842;2023-04-25T09:35:38;2.22;;;1.52;;
78752;SDS011;68072;51.688;7.842;2023-04-25T09:38:12;8.70;;;2.03;;
78752;SDS011;68072;51.688;7.842;2023-04-25T09:40:40;15.07;;;1.80;;
78752;SDS011;68072;51.688;7.842;2023-04-25T09:43:10;6.00;;;1.50;;
78752;SDS011;68072;51.688;7.842;2023-04-25T09:45:55;2.78;;;0.98;;
78752;SDS011;68072;51.688;7.842;2023-04-25T09:48:26;2.55;;;1.05;;
78752;SDS011;68072;51.688;7.842;2023-04-25T09:51:05;3.30;;;1.45;;
78752;SDS011;68072;51.688;7.842;2023-04-25T09:53:39;4.93;;;1.70;;
78752;SDS011;68072;51.688;7.842;2023-04-25T09:56:09;4.93;;;1.13;;
78752;SDS011;68072;51.688;7.842;2023-04-25T09:58:36;7.70;;;1.75;;
78752;SDS011;68072;51.688;7.842;2023-04-25T10:01:04;3.78;;;1.63;;
78752;SDS011;68072;51.688;7.842;2023-04-25T10:03:33;8.43;;;1.65;;
78752;SDS011;68072;51.688;7.842;2023-04-25T10:06:18;7.95;;;1.77;;
78752;SDS011;68072;51.688;7.842;2023-04-25T10:08:45;6.70;;;1.50;;
78752;SDS011;68072;51.688;7.842;2023-04-25T10:11:20;2.40;;;1.00;;
78752;SDS011;68072;51.688;7.842;2023-04-25T10:13:50;5.53;;;1.60;;
78752;SDS011;68072;51.688;7.842;2023-04-25T10:16:17;5.68;;;1.80;;
78752;SDS011;68072;51.688;7.842;2023-04-25T10:18:42;3.40;;;1.65;;
78752;SDS011;68072;51.688;7.842;2023-04-25T10:21:08;8.43;;;1.92;;
78752;SDS011;68072;51.688;7.842;2023-04-25T10:23:34;9.68;;;2.15;;
78752;SDS011;68072;51.688;7.842;2023-04-25T10:25:59;4.22;;;1.10;;
78752;SDS011;68072;51.688;7.842;2023-04-25T10:28:25;3.03;;;1.42;;
78752;SDS011;68072;51.688;7.842;2023-04-25T10:33:38;2.60;;;1.30;;
78752;SDS011;68072;51.688;7.842;2023-04-25T10:36:17;6.57;;;1.50;;
78752;SDS011;68072;51.688;7.842;2023-04-25T10:38:44;3.67;;;1.23;;
78752;SDS011;68072;51.688;7.842;2023-04-25T10:41:10;2.97;;;1.25;;
78752;SDS011;68072;51.688;7.842;2023-04-25T10:43:43;3.67;;;1.52;;
78752;SDS011;68072;51.688;7.842;2023-04-25T10:48:43;4.55;;;1.58;;
78752;SDS011;68072;51.688;7.842;2023-04-25T10:51:23;5.50;;;1.83;;
78752;SDS011;68072;51.688;7.842;2023-04-25T10:53:57;5.05;;;1.63;;
78752;SDS011;68072;51.688;7.842;2023-04-25T10:59:12;3.00;;;1.60;;
78752;SDS011;68072;51.688;7.842;2023-04-25T11:01:38;5.05;;;1.80;;
78752;SDS011;68072;51.688;7.842;2023-04-25T11:04:23;2.55;;;1.30;;
78752;SDS011;68072;51.688;7.842;2023-04-25T11:09:46;6.15;;;1.67;;
78752;SDS011;68072;51.688;7.842;2023-04-25T11:12:11;4.93;;;1.30;;
78752;SDS011;68072;51.688;7.842;2023-04-25T11:17:03;2.73;;;1.30;;
78752;SDS011;68072;51.688;7.842;2023-04-25T11:19:28;5.03;;;1.30;;
78752;SDS011;68072;51.688;7.842;2023-04-25T11:21:55;3.80;;;1.50;;
78752;SDS011;68072;51.688;7.842;2023-04-25T11:24:25;2.72;;;1.33;;
78752;SDS011;68072;51.688;7.842;2023-04-25T11:26:53;6.47;;;1.73;;
78752;SDS011;68072;51.688;7.842;2023-04-25T11:29:21;5.82;;;1.30;;
78752;SDS011;68072;51.688;7.842;2023-04-25T11:31:50;3.00;;;1.20;;
78752;SDS011;68072;51.688;7.842;2023-04-25T11:34:18;5.18;;;1.42;;
78752;SDS011;68072;51.688;7.842;2023-04-25T11:36:44;2.20;;;1.30;;
78752;SDS011;68072;51.688;7.842;2023-04-25T11:39:11;7.18;;;1.52;;
78752;SDS011;68072;51.688;7.842;2023-04-25T11:41:37;7.35;;;1.60;;
78752;SDS011;68072;51.688;7.842;2023-04-25T11:44:03;3.35;;;1.20;;
78752;SDS011;68072;51.688;7.842;2023-04-25T11:46:29;2.28;;;1.52;;
78752;SDS011;68072;51.688;7.842;2023-04-25T11:48:54;5.18;;;1.45;;
78752;SDS011;68072;51.688;7.842;2023-04-25T11:53:46;3.47;;;1.50;;
78752;SDS011;68072;51.688;7.842;2023-04-25T11:56:11;2.80;;;1.30;;
78752;SDS011;68072;51.688;7.842;2023-04-25T12:03:54;2.38;;;1.60;;
78752;SDS011;68072;51.688;7.842;2023-04-25T12:06:19;5.30;;;1.50;;
78752;SDS011;68072;51.688;7.842;2023-04-25T12:09:03;5.22;;;1.65;;
78752;SDS011;68072;51.688;7.842;2023-04-25T12:11:33;6.65;;;1.90;;
78752;SDS011;68072;51.688;7.842;2023-04-25T12:14:21;5.40;;;1.70;;
78752;SDS011;68072;51.688;7.842;2023-04-25T12:16:48;5.15;;;1.27;;
78752;SDS011;68072;51.688;7.842;2023-04-25T12:19:15;4.72;;;1.77;;
78752;SDS011;68072;51.688;7.842;2023-04-25T12:24:16;5.40;;;1.50;;
78752;SDS011;68072;51.688;7.842;2023-04-25T12:29:20;4.57;;;1.50;;
78752;SDS011;68072;51.688;7.842;2023-04-25T12:31:49;3.50;;;1.02;;
78752;SDS011;68072;51.688;7.842;2023-04-25T12:34:16;1.63;;;0.80;;
78752;SDS011;68072;51.688;7.842;2023-04-25T12:36:42;1.85;;;1.23;;
78752;SDS011;68072;51.688;7.842;2023-04-25T12:39:07;1.98;;;1.20;;
78752;SDS011;68072;51.688;7.842;2023-04-25T12:41:33;4.90;;;1.38;;
78752;SDS011;68072;51.688;7.842;2023-04-25T12:43:58;5.68;;;1.27;;
78752;SDS011;68072;51.688;7.842;2023-04-25T12:46:24;6.13;;;1.60;;
78752;SDS011;68072;51.688;7.842;2023-04-25T12:48:50;3.80;;;1.33;;
78752;SDS011;68072;51.688;7.842;2023-04-25T12:51:20;6.43;;;1.33;;
78752;SDS011;68072;51.688;7.842;2023-04-25T12:53:45;2.35;;;1.23;;
78752;SDS011;68072;51.688;7.842;2023-04-25T12:56:11;4.95;;;1.23;;
78752;SDS011;68072;51.688;7.842;2023-04-25T12:58:36;5.13;;;1.65;;
78752;SDS011;68072;51.688;7.842;2023-04-25T13:01:02;5.50;;;1.92;;
78752;SDS011;68072;51.688;7.842;2023-04-25T13:03:27;2.75;;;1.10;;
78752;SDS011;68072;51.688;7.842;2023-04-25T13:05:53;1.70;;;1.20;;
78752;SDS011;68072;51.688;7.842;2023-04-25T13:08:19;3.10;;;1.50;;
78752;SDS011;68072;51.688;7.842;2023-04-25T13:10:45;4.00;;;1.33;;
78752;SDS011;68072;51.688;7.842;2023-04-25T13:13:13;6.75;;;1.58;;
78752;SDS011;68072;51.688;7.842;2023-04-25T13:15:46;2.92;;;1.05;;
78752;SDS011;68072;51.688;7.842;2023-04-25T13:19:01;2.70;;;1.13;;
78752;SDS011;68072;51.688;7.842;2023-04-25T13:24:03;1.77;;;1.17;;
78752;SDS011;68072;51.688;7.842;2023-04-25T13:26:48;4.45;;;1.25;;
78752;SDS011;68072;51.688;7.842;2023-04-25T13:32:37;1.40;;;1.30;;
78752;SDS011;68072;51.688;7.842;2023-04-25T13:35:03;2.15;;;1.05;;
78752;SDS011;68072;51.688;7.842;2023-04-25T13:37:41;3.80;;;1.27;;
78752;SDS011;68072;51.688;7.842;2023-04-25T13:40:17;1.83;;;1.10;;
78752;SDS011;68072;51.688;7.842;2023-04-25T13:42:48;1.15;;;0.68;;
78752;SDS011;68072;51.688;7.842;2023-04-25T13:45:13;1.63;;;0.98;;
78752;SDS011;68072;51.688;7.842;2023-04-25T13:47:39;2.33;;;1.25;;
78752;SDS011;68072;51.688;7.842;2023-04-25T13:50:04;4.88;;;1.25;;
78752;SDS011;68072;51.688;7.842;2023-04-25T13:52:33;4.05;;;1.30;;
78752;SDS011;68072;51.688;7.842;2023-04-25T13:55:10;5.80;;;1.30;;
78752;SDS011;68072;51.688;7.842;2023-04-25T13:57:42;2.05;;;1.17;;
78752;SDS011;68072;51.688;7.842;2023-04-25T14:00:13;2.10;;;1.20;;
78752;SDS011;68072;51.688;7.842;2023-04-25T14:02:44;1.60;;;1.10;;
78752;SDS011;68072;51.688;7.842;2023-04-25T14:05:09;1.75;;;1.10;;
78752;SDS011;68072;51.688;7.842;2023-04-25T14:07:35;5.55;;;1.52;;
78752;SDS011;68072;51.688;7.842;2023-04-25T14:10:08;2.03;;;1.05;;
78752;SDS011;68072;51.688;7.842;2023-04-25T14:12:36;2.53;;;1.20;;
78752;SDS011;68072;51.688;7.842;2023-04-25T14:15:07;4.43;;;1.35;;
78752;SDS011;68072;51.688;7.842;2023-04-25T14:17:35;4.13;;;1.50;;
78752;SDS011;68072;51.688;7.842;2023-04-25T14:20:01;2.30;;;1.00;;
78752;SDS011;68072;51.688;7.842;2023-04-25T14:22:26;1.25;;;1.15;;
78752;SDS011;68072;51.688;7.842;2023-04-25T14:27:53;1.85;;;1.20;;
78752;SDS011;68072;51.688;7.842;2023-04-25T14:30:18;3.85;;;1.60;;
78752;SDS011;68072;51.688;7.842;2023-04-25T14:35:10;3.53;;;1.23;;
78752;SDS011;68072;51.688;7.842;2023-04-25T14:37:36;3.03;;;1.38;;
78752;SDS011;68072;51.688;7.842;2023-04-25T14:40:02;4.30;;;1.05;;
78752;SDS011;68072;51.688;7.842;2023-04-25T14:42:28;2.65;;;1.30;;
78752;SDS011;68072;51.688;7.842;2023-04-25T14:44:56;2.50;;;1.02;;
78752;SDS011;68072;51.688;7.842;2023-04-25T14:47:29;3.33;;;1.63;;
78752;SDS011;68072;51.688;7.842;2023-04-25T14:49:55;3.30;;;1.60;;
78752;SDS011;68072;51.688;7.842;2023-04-25T14:52:20;1.85;;;1.42;;
78752;SDS011;68072;51.688;7.842;2023-04-25T14:54:55;4.65;;;1.52;;
78752;SDS011;68072;51.688;7.842;2023-04-25T14:57:40;4.10;;;1.50;;
78752;SDS011;68072;51.688;7.842;2023-04-25T15:00:05;3.70;;;2.20;;
78752;SDS011;68072;51.688;7.842;2023-04-25T15:02:34;2.85;;;1.50;;
78752;SDS011;68072;51.688;7.842;2023-04-25T15:05:00;2.72;;;1.40;;
78752;SDS011;68072;51.688;7.842;2023-04-25T15:07:26;1.35;;;1.17;;
78752;SDS011;68072;51.688;7.842;2023-04-25T15:09:51;1.27;;;1.17;;
78752;SDS011;68072;51.688;7.842;2023-04-25T15:12:18;1.08;;;0.93;;
78752;SDS011;68072;51.688;7.842;2023-04-25T15:14:43;3.47;;;1.00;;
78752;SDS011;68072;51.688;7.842;2023-04-25T15:17:09;2.97;;;1.15;;
78752;SDS011;68072;51.688;7.842;2023-04-25T15:19:40;2.28;;;1.30;;
78752;SDS011;68072;51.688;7.842;2023-04-25T15:22:06;7.40;;;1.17;;
78752;SDS011;68072;51.688;7.842;2023-04-25T15:24:32;2.55;;;1.00;;
78752;SDS011;68072;51.688;7.842;2023-04-25T15:27:08;0.52;;;0.52;;